Time;durP1;ratioP1;P1;durP2;ratioP2;P2;SDS_P1;SDS_P2;PMS_P1;PMS_P2;Temp;Humidity;BMP_temperature;BMP_pressure;BME280_temperature;BME280_humidity;BME280_pressure;Samples;Min_cycle;Max_cycle;Signal;HPM_P1;HPM_P2
2021/07/27 00:01:14;;;;;;;22.25;19.83;;;18.90;99.90;;;;;;5113902;28;20082;-61
2021/07/27 00:03:40;;;;;;;25.45;21.70;;;18.80;99.90;;;;;;5095736;28;20040;-61
2021/07/27 00:06:07;;;;;;;27.23;21.75;;;18.70;99.90;;;;;;5113744;28;20036;-61
2021/07/27 00:08:36;;;;;;;22.48;19.63;;;18.80;99.90;;;;;;5113872;28;20047;-61
2021/07/27 00:11:05;;;;;;;24.17;21.58;;;18.70;99.90;;;;;;5113763;28;20043;-60
2021/07/27 00:13:31;;;;;;;;;;;18.70;99.90;;;;;;5114296;28;20083;-61
2021/07/27 00:15:56;;;;;;;26.27;22.60;;;18.70;99.90;;;;;;5113864;28;19959;-60
2021/07/27 00:18:22;;;;;;;24.88;22.13;;;18.50;99.90;;;;;;5113796;28;20126;-61
2021/07/27 00:20:48;;;;;;;26.30;22.98;;;18.60;99.90;;;;;;5113576;28;20100;-61
2021/07/27 00:23:15;;;;;;;27.48;23.85;;;18.60;99.90;;;;;;5113541;28;20043;-61
2021/07/27 00:25:42;;;;;;;30.35;26.25;;;18.60;99.90;;;;;;5113468;28;20044;-60
2021/07/27 00:28:08;;;;;;;28.83;25.48;;;18.50;99.90;;;;;;5113282;28;20053;-61
2021/07/27 00:30:34;;;;;;;30.30;26.42;;;18.50;99.90;;;;;;5113323;28;20039;-60
2021/07/27 00:33:00;;;;;;;31.25;27.75;;;18.50;99.90;;;;;;5113365;28;20043;-61
2021/07/27 00:35:28;;;;;;;33.33;27.02;;;18.60;99.90;;;;;;5113065;28;20049;-61
2021/07/27 00:38:09;;;;;;;32.92;27.45;;;18.50;99.90;;;;;;5113213;28;20126;-60
2021/07/27 00:40:41;;;;;;;36.53;29.50;;;18.60;99.90;;;;;;5112953;28;20405;-61
2021/07/27 00:43:10;;;;;;;33.63;28.30;;;18.50;99.90;;;;;;5113186;28;20108;-60
2021/07/27 00:45:36;;;;;;;35.30;27.90;;;18.60;99.90;;;;;;5113068;28;20063;-61
2021/07/27 00:48:02;;;;;;;37.97;30.38;;;18.60;99.90;;;;;;5113080;28;20146;-61
2021/07/27 00:50:29;;;;;;;34.53;29.33;;;18.60;99.90;;;;;;5112908;28;20054;-60
2021/07/27 00:52:57;;;;;;;38.55;29.58;;;18.60;99.90;;;;;;5112917;28;20039;-60
2021/07/27 00:55:27;;;;;;;37.45;28.85;;;18.70;99.90;;;;;;5112770;28;20058;-61
2021/07/27 00:57:53;;;;;;;35.72;30.33;;;18.80;99.90;;;;;;5112863;28;20489;-61
2021/07/27 01:00:23;;;;;;;40.63;31.08;;;18.70;99.90;;;;;;5112839;28;20043;-61
2021/07/27 01:02:49;;;;;;;37.70;29.60;;;18.80;99.90;;;;;;5112826;28;20043;-60
2021/07/27 01:05:16;;;;;;;38.30;30.52;;;18.70;99.90;;;;;;5113051;28;20054;-61
2021/07/27 01:07:43;;;;;;;41.45;32.33;;;18.70;99.90;;;;;;5112652;28;20050;-60
2021/07/27 01:10:12;;;;;;;38.22;32.63;;;18.80;99.90;;;;;;5112732;28;20043;-61
2021/07/27 01:12:38;;;;;;;41.50;32.22;;;18.80;99.90;;;;;;5112792;28;20074;-61
2021/07/27 01:15:05;;;;;;;37.28;31.05;;;18.70;99.90;;;;;;5112309;28;20122;-61
2021/07/27 01:17:31;;;;;;;34.95;30.05;;;18.70;99.90;;;;;;5112478;28;20385;-61
2021/07/27 01:20:13;;;;;;;36.15;30.45;;;18.80;99.90;;;;;;5112350;28;20042;-61
2021/07/27 01:39:21;;;;;;;38.35;27.80;;;18.70;99.90;;;;;;5112352;28;20035;-60
2021/07/27 01:44:42;;;;;;;34.90;27.10;;;18.70;99.90;;;;;;5112422;28;20100;-61
2021/07/27 01:47:08;;;;;;;33.63;27.83;;;18.70;99.90;;;;;;5111605;28;20055;-60
2021/07/27 01:49:34;;;;;;;32.13;26.27;;;18.60;99.90;;;;;;5112246;28;20043;-61
2021/07/27 01:52:00;;;;;;;34.33;28.35;;;18.70;99.90;;;;;;5112190;28;20443;-61
2021/07/27 01:54:29;;;;;;;30.75;26.50;;;18.60;99.90;;;;;;5112178;28;20100;-60
2021/07/27 01:56:56;;;;;;;36.85;27.13;;;18.60;99.90;;;;;;5112158;28;20039;-61
2021/07/27 01:59:22;;;;;;;37.03;26.73;;;18.60;99.90;;;;;;5111976;28;20046;-61
2021/07/27 02:01:48;;;;;;;33.58;26.65;;;18.60;99.90;;;;;;5111851;28;20470;-61
2021/07/27 02:04:14;;;;;;;35.08;26.45;;;18.60;99.90;;;;;;5112155;28;20063;-60
2021/07/27 02:06:42;;;;;;;35.15;28.00;;;18.60;99.90;;;;;;5112069;28;20102;-61
2021/07/27 02:09:08;;;;;;;37.10;29.60;;;18.60;99.90;;;;;;5111909;28;20044;-61
2021/07/27 02:11:43;;;;;;;33.10;28.58;;;18.60;99.90;;;;;;5111948;28;20048;-60
2021/07/27 02:14:12;;;;;;;36.15;28.95;;;18.60;99.90;;;;;;5111704;28;20082;-60
2021/07/27 02:16:38;;;;;;;37.67;29.58;;;18.50;99.90;;;;;;5111954;28;20418;-61
2021/07/27 02:19:04;;;;;;;35.13;27.27;;;18.50;99.90;;;;;;5111857;28;20074;-61
2021/07/27 02:21:30;;;;;;;38.78;28.75;;;18.50;99.90;;;;;;5111701;28;20032;-61
2021/07/27 02:24:00;;;;;;;42.03;30.75;;;18.50;99.90;;;;;;5111905;28;20047;-61
2021/07/27 02:26:26;;;;;;;38.25;28.13;;;18.60;99.90;;;;;;5111790;28;20047;-61
2021/07/27 02:28:52;;;;;;;32.17;25.40;;;18.50;99.90;;;;;;5111756;28;20113;-62
2021/07/27 02:31:27;;;;;;;32.25;25.50;;;18.60;99.90;;;;;;5111811;28;20058;-61
2021/07/27 02:33:53;;;;;;;38.92;25.67;;;18.50;99.90;;;;;;5111772;28;20043;-61
2021/07/27 02:36:19;;;;;;;33.28;24.95;;;18.60;99.90;;;;;;5111855;28;20051;-60
2021/07/27 02:38:47;;;;;;;31.58;23.80;;;18.60;99.90;;;;;;5111998;28;20043;-60
2021/07/27 02:41:13;;;;;;;36.75;25.75;;;18.60;99.90;;;;;;5111884;28;20035;-60
2021/07/27 02:43:39;;;;;;;35.40;23.02;;;18.50;99.90;;;;;;5111794;28;20483;-61
2021/07/27 02:46:04;;;;;;;30.55;22.60;;;18.60;99.90;;;;;;5111447;28;20082;-61
2021/07/27 02:48:34;;;;;;;33.00;23.85;;;18.70;99.90;;;;;;5111868;28;20048;-61
2021/07/27 02:51:03;;;;;;;35.97;24.67;;;18.60;99.90;;;;;;5111546;28;20069;-61
2021/07/27 02:53:32;;;;;;;36.65;25.80;;;18.60;99.90;;;;;;5111539;28;20062;-60
2021/07/27 02:56:00;;;;;;;33.75;24.63;;;18.60;99.90;;;;;;5111486;28;20481;-61
2021/07/27 02:58:25;;;;;;;34.15;24.80;;;18.60;99.90;;;;;;5093348;28;20503;-61
2021/07/27 03:00:51;;;;;;;34.05;23.80;;;18.60;99.90;;;;;;5114714;28;20071;-60
2021/07/27 03:03:17;;;;;;;31.38;23.50;;;18.60;99.90;;;;;;5115346;28;20135;-60
2021/07/27 03:05:42;;;;;;;33.25;24.10;;;18.70;99.90;;;;;;5115549;28;20151;-60
2021/07/27 03:08:11;;;;;;;34.03;23.70;;;18.60;99.90;;;;;;5114864;28;20039;-60
2021/07/27 03:10:37;;;;;;;34.55;24.27;;;18.60;99.90;;;;;;5115233;28;20047;-60
2021/07/27 03:13:03;;;;;;;33.70;23.67;;;18.60;99.90;;;;;;5115177;28;20047;-60
2021/07/27 03:15:29;;;;;;;36.15;24.63;;;18.60;99.90;;;;;;5114939;28;20465;-60
2021/07/27 03:17:57;;;;;;;34.22;24.05;;;18.60;99.90;;;;;;5114768;28;20442;-61
2021/07/27 03:20:27;;;;;;;33.67;22.20;;;18.60;99.90;;;;;;5114861;28;20039;-61
2021/07/27 03:22:54;;;;;;;34.25;24.65;;;18.60;99.90;;;;;;5115186;28;20044;-61
2021/07/27 03:25:21;;;;;;;34.00;22.48;;;18.60;99.90;;;;;;5114795;28;20404;-61
2021/07/27 03:27:49;;;;;;;31.77;22.92;;;18.50;99.90;;;;;;5114987;28;20112;-60
2021/07/27 03:30:19;;;;;;;26.73;20.92;;;18.60;99.90;;;;;;5096341;28;20047;-60
2021/07/27 03:32:49;;;;;;;26.40;20.67;;;18.50;99.90;;;;;;5114618;28;20055;-60
2021/07/27 03:35:16;;;;;;;30.30;21.52;;;18.50;99.90;;;;;;5114387;28;20096;-60
2021/07/27 03:37:42;;;;;;;28.65;22.50;;;18.50;99.90;;;;;;5114371;28;20078;-60
2021/07/27 03:40:08;;;;;;;30.02;22.67;;;18.50;99.90;;;;;;5114377;28;20075;-60
2021/07/27 03:42:34;;;;;;;27.02;21.02;;;18.50;99.90;;;;;;5114344;28;20508;-61
2021/07/27 03:45:00;;;;;;;27.65;21.60;;;18.50;99.90;;;;;;5114171;28;20079;-61
2021/07/27 03:47:26;;;;;;;27.73;20.52;;;18.50;99.90;;;;;;5114284;28;20070;-60
2021/07/27 03:49:55;;;;;;;24.48;21.13;;;18.50;99.90;;;;;;5114090;28;20051;-60
2021/07/27 03:52:22;;;;;;;29.05;21.90;;;18.40;99.90;;;;;;5114144;28;20062;-61
2021/07/27 03:54:49;;;;;;;30.80;22.70;;;18.30;99.90;;;;;;5114179;28;20544;-61
2021/07/27 03:57:14;;;;;;;29.00;20.65;;;18.40;99.90;;;;;;5095879;28;20035;-61
2021/07/27 03:59:40;;;;;;;27.92;22.30;;;18.40;99.90;;;;;;5114041;28;20089;-62
2021/07/27 04:02:08;;;;;;;29.92;22.95;;;18.40;99.90;;;;;;5113931;28;20447;-62
2021/07/27 04:04:37;;;;;;;36.17;24.23;;;18.40;99.90;;;;;;5113842;28;20039;-61
2021/07/27 04:07:03;;;;;;;24.20;20.35;;;18.40;99.90;;;;;;5113818;28;20122;-62
2021/07/27 04:09:29;;;;;;;27.90;21.83;;;18.30;99.90;;;;;;5113627;28;20513;-60
2021/07/27 04:11:56;;;;;;;29.85;22.50;;;18.30;99.90;;;;;;5113492;28;20036;-62
2021/07/27 04:14:21;;;;;;;27.58;21.98;;;18.20;99.90;;;;;;5113667;28;20047;-61
2021/07/27 04:16:47;;;;;;;29.75;22.55;;;18.20;99.90;;;;;;5113608;28;20062;-62
2021/07/27 04:19:13;;;;;;;26.75;20.60;;;18.10;99.90;;;;;;5113980;28;20442;-60
2021/07/27 04:21:45;;;;;;;26.88;21.38;;;18.20;99.90;;;;;;5113871;28;20055;-60
2021/07/27 04:24:17;;;;;;;29.80;20.63;;;18.10;99.90;;;;;;5113632;28;20078;-60
2021/07/27 04:26:42;;;;;;;30.80;21.25;;;18.10;99.90;;;;;;5113424;28;20071;-61
2021/07/27 04:29:14;;;;;;;34.00;22.52;;;18.10;99.90;;;;;;5113281;28;20044;-61
2021/07/27 04:31:44;;;;;;;28.52;21.10;;;18.00;99.90;;;;;;5113283;28;20051;-61
2021/07/27 04:34:10;;;;;;;27.02;20.55;;;18.10;99.90;;;;;;5113251;28;20040;-61
2021/07/27 04:36:36;;;;;;;28.92;20.98;;;18.00;99.90;;;;;;5113166;28;20043;-60
2021/07/27 04:39:02;;;;;;;27.40;21.23;;;18.00;99.90;;;;;;5113204;28;20114;-60
2021/07/27 04:41:28;;;;;;;22.75;19.00;;;18.00;99.90;;;;;;5113317;28;20122;-61
2021/07/27 04:43:53;;;;;;;27.70;20.55;;;17.90;99.90;;;;;;5113082;28;20150;-60
2021/07/27 04:46:19;;;;;;;27.88;20.30;;;18.00;99.90;;;;;;5112922;28;20052;-61
2021/07/27 04:48:45;;;;;;;28.75;20.83;;;18.00;99.90;;;;;;5112894;28;20130;-61
2021/07/27 04:51:10;;;;;;;32.63;20.63;;;18.00;99.90;;;;;;5094752;28;20131;-59
2021/07/27 04:53:37;;;;;;;30.38;20.15;;;18.10;99.90;;;;;;5112942;28;20051;-59
2021/07/27 04:56:04;;;;;;;27.27;21.05;;;18.00;99.90;;;;;;5112985;28;20043;-59
2021/07/27 04:58:30;;;;;;;26.58;19.50;;;18.00;99.90;;;;;;5094348;28;20407;-60
2021/07/27 05:01:01;;;;;;;24.90;18.80;;;18.10;99.90;;;;;;5112749;28;20044;-60
2021/07/27 05:03:31;;;;;;;27.42;21.05;;;18.20;99.90;;;;;;5112905;28;20370;-59
2021/07/27 05:05:57;;;;;;;27.60;19.33;;;18.30;99.90;;;;;;5112658;28;20114;-59
2021/07/27 05:08:24;;;;;;;24.63;19.83;;;18.20;99.90;;;;;;5112725;28;20111;-59
2021/07/27 05:10:49;;;;;;;25.95;20.15;;;18.40;99.90;;;;;;5112606;28;20039;-59
2021/07/27 05:13:15;;;;;;;25.83;18.77;;;18.40;99.90;;;;;;5094309;28;20100;-60
2021/07/27 05:15:41;;;;;;;25.63;19.45;;;18.40;99.90;;;;;;5112451;28;20051;-60
2021/07/27 05:18:06;;;;;;;23.67;20.13;;;18.50;99.90;;;;;;5112463;28;20500;-59
2021/07/27 05:20:32;;;;;;;23.42;18.38;;;18.50;99.90;;;;;;5112470;28;20043;-59
2021/07/27 05:22:59;;;;;;;25.70;19.38;;;18.50;99.90;;;;;;5111722;28;20051;-59
2021/07/27 05:25:25;;;;;;;25.33;19.58;;;18.50;99.90;;;;;;5112426;28;20057;-60
2021/07/27 05:27:51;;;;;;;26.73;19.08;;;18.50;99.90;;;;;;5112302;28;20044;-59
2021/07/27 05:30:17;;;;;;;26.48;19.13;;;18.50;99.90;;;;;;5112433;28;20047;-61
2021/07/27 05:32:43;;;;;;;22.95;18.52;;;18.60;99.90;;;;;;5112569;28;20040;-61
2021/07/27 05:35:11;;;;;;;35.00;19.58;;;18.50;99.90;;;;;;5112715;28;20059;-59
2021/07/27 05:37:37;;;;;;;23.50;18.92;;;18.60;99.90;;;;;;5112405;28;20556;-59
2021/07/27 05:40:04;;;;;;;25.13;17.83;;;18.60;99.90;;;;;;5112347;28;20420;-59
2021/07/27 05:42:29;;;;;;;22.83;17.02;;;18.60;99.90;;;;;;5112099;28;20039;-59
2021/07/27 05:44:55;;;;;;;23.70;17.15;;;18.60;99.90;;;;;;5112190;28;20523;-59
2021/07/27 05:47:21;;;;;;;25.67;15.75;;;18.70;99.90;;;;;;5112044;28;20110;-59
2021/07/27 05:49:47;;;;;;;22.83;16.33;;;18.70;99.90;;;;;;5112213;28;20039;-60
2021/07/27 05:52:12;;;;;;;22.38;17.75;;;18.60;99.90;;;;;;5112050;28;20505;-60
2021/07/27 05:54:42;;;;;;;22.05;16.70;;;18.70;99.90;;;;;;5111931;28;20043;-60
2021/07/27 05:57:15;;;;;;;26.13;19.05;;;18.70;99.90;;;;;;5111960;28;20040;-59
2021/07/27 05:59:42;;;;;;;22.13;17.30;;;18.70;99.90;;;;;;5112262;28;20122;-60
2021/07/27 06:02:08;;;;;;;22.85;17.02;;;18.60;99.90;;;;;;5112169;28;20490;-60
2021/07/27 06:04:34;;;;;;;21.80;15.85;;;18.60;99.90;;;;;;5112379;28;20465;-59
2021/07/27 06:07:01;;;;;;;26.45;17.00;;;18.60;99.90;;;;;;5112080;28;20051;-59
2021/07/27 06:09:27;;;;;;;22.38;17.75;;;18.60;99.90;;;;;;5112141;28;20086;-61
2021/07/27 06:11:52;;;;;;;20.88;17.05;;;18.50;99.90;;;;;;5111896;28;20067;-60
2021/07/27 06:14:19;;;;;;;22.13;17.27;;;18.60;99.90;;;;;;5111881;28;20057;-59
2021/07/27 06:16:45;;;;;;;23.23;17.80;;;18.60;99.90;;;;;;5111758;28;20519;-59
2021/07/27 06:19:12;;;;;;;21.33;18.42;;;18.60;99.90;;;;;;5111803;28;20040;-59
2021/07/27 06:21:40;;;;;;;20.50;17.85;;;18.60;99.90;;;;;;5111908;28;20142;-60
2021/07/27 06:24:06;;;;;;;23.23;18.48;;;18.70;99.90;;;;;;5111648;28;20043;-60
2021/07/27 06:26:32;;;;;;;26.10;18.52;;;18.70;99.90;;;;;;5111866;28;20046;-59
2021/07/27 06:28:58;;;;;;;20.77;17.70;;;18.70;99.90;;;;;;5111761;28;20401;-60
2021/07/27 06:31:24;;;;;;;24.67;18.23;;;18.70;99.90;;;;;;5111687;28;20485;-60
2021/07/27 06:33:50;;;;;;;23.58;17.20;;;18.70;99.90;;;;;;5113315;28;20048;-61
2021/07/27 06:36:16;;;;;;;20.85;17.85;;;18.90;99.90;;;;;;5115646;28;20051;-59
2021/07/27 06:38:42;;;;;;;23.30;18.67;;;18.90;99.90;;;;;;5115490;28;20050;-60
2021/07/27 06:41:09;;;;;;;25.45;18.08;;;18.90;99.90;;;;;;5115723;28;20044;-60
2021/07/27 06:43:36;;;;;;;22.23;18.75;;;18.80;99.90;;;;;;5115741;28;20405;-60
2021/07/27 06:46:02;;;;;;;24.23;18.77;;;18.90;99.90;;;;;;5115204;28;20062;-61
2021/07/27 06:48:28;;;;;;;26.42;19.83;;;18.90;99.90;;;;;;5115579;28;20044;-61
2021/07/27 06:50:54;;;;;;;27.80;22.05;;;18.90;99.90;;;;;;5115355;28;20131;-60
2021/07/27 06:53:20;;;;;;;28.83;21.02;;;19.00;99.90;;;;;;5115299;28;20123;-61
2021/07/27 06:55:46;;;;;;;32.28;22.38;;;19.00;99.90;;;;;;5115062;28;20093;-60
2021/07/27 06:58:12;;;;;;;29.30;23.00;;;19.10;99.90;;;;;;5111201;28;20048;-60
2021/07/27 07:00:39;;;;;;;31.17;23.52;;;19.10;99.90;;;;;;5115443;28;20043;-61
2021/07/27 07:03:08;;;;;;;39.15;24.15;;;19.20;99.90;;;;;;5115077;28;20039;-61
2021/07/27 07:05:35;;;;;;;35.75;24.45;;;19.20;99.90;;;;;;5115181;28;20047;-60
2021/07/27 07:08:01;;;;;;;32.45;25.13;;;19.30;99.90;;;;;;5097102;28;20374;-60
2021/07/27 07:10:27;;;;;;;27.73;21.65;;;19.30;99.90;;;;;;5115381;28;20137;-61
2021/07/27 07:12:53;;;;;;;34.45;25.35;;;19.40;99.90;;;;;;5115159;28;20119;-60
2021/07/27 07:15:19;;;;;;;30.05;25.40;;;19.50;99.90;;;;;;5114981;28;20036;-61
2021/07/27 07:17:45;;;;;;;36.28;26.92;;;19.60;99.90;;;;;;5114579;28;20562;-60
2021/07/27 07:20:11;;;;;;;37.38;26.60;;;19.70;99.90;;;;;;5114143;28;20047;-61
2021/07/27 07:22:37;;;;;;;40.30;28.15;;;19.70;99.90;;;;;;5095338;28;20552;-61
2021/07/27 07:25:03;;;;;;;38.50;28.10;;;19.70;99.90;;;;;;5093657;28;20055;-62
2021/07/27 07:27:29;;;;;;;39.60;27.95;;;19.70;99.90;;;;;;5092633;28;20488;-61
2021/07/27 07:29:57;;;;;;;39.88;29.40;;;19.70;99.90;;;;;;5094265;28;20116;-61
2021/07/27 07:32:22;;;;;;;44.00;28.67;;;19.80;99.90;;;;;;5094074;28;20039;-61
2021/07/27 07:34:48;;;;;;;44.83;32.42;;;20.00;99.90;;;;;;5094022;28;20043;-61
2021/07/27 07:37:15;;;;;;;44.08;31.73;;;20.10;99.90;;;;;;5093992;28;20048;-61
2021/07/27 07:39:41;;;;;;;44.13;32.33;;;20.10;99.90;;;;;;5092085;28;20040;-61
2021/07/27 07:42:07;;;;;;;47.50;34.28;;;20.20;99.90;;;;;;5094254;28;20043;-60
2021/07/27 07:44:34;;;;;;;43.50;30.95;;;20.20;99.90;;;;;;5093324;28;20059;-61
2021/07/27 07:47:00;;;;;;;44.45;32.63;;;20.30;99.90;;;;;;5093692;28;20056;-61
2021/07/27 07:49:26;;;;;;;44.67;31.08;;;20.40;99.90;;;;;;5093878;28;20059;-61
2021/07/27 07:51:58;;;;;;;41.70;30.48;;;20.50;99.90;;;;;;5093704;28;20036;-62
2021/07/27 07:54:24;;;;;;;47.28;32.30;;;20.50;99.90;;;;;;5093687;28;20039;-60
2021/07/27 07:56:51;;;;;;;40.28;31.05;;;20.50;99.90;;;;;;5093577;28;20398;-62
2021/07/27 07:59:17;;;;;;;43.20;33.25;;;20.50;99.90;;;;;;5093573;28;20535;-60
2021/07/27 08:01:48;;;;;;;44.70;32.63;;;20.50;99.90;;;;;;5093584;28;20036;-61
2021/07/27 08:04:14;;;;;;;44.45;32.13;;;20.70;99.90;;;;;;5093471;28;20101;-61
2021/07/27 08:06:40;;;;;;;38.53;30.10;;;20.90;99.90;;;;;;5093687;28;20128;-62
2021/07/27 08:09:06;;;;;;;47.05;33.70;;;21.10;99.90;;;;;;5093436;28;20128;-60
2021/07/27 08:11:31;;;;;;;42.63;32.65;;;21.20;99.90;;;;;;5093284;28;20040;-61
2021/07/27 08:13:58;;;;;;;47.35;34.67;;;21.30;99.90;;;;;;5093213;28;20043;-61
2021/07/27 08:16:24;;;;;;;49.60;34.40;;;21.50;99.90;;;;;;5093335;28;20051;-60
2021/07/27 08:18:50;;;;;;;39.70;32.60;;;21.90;99.90;;;;;;5093213;28;20044;-61
2021/07/27 08:21:16;;;;;;;48.20;34.92;;;21.90;99.90;;;;;;5093223;28;20394;-60
2021/07/27 08:23:45;;;;;;;47.10;34.10;;;21.90;99.90;;;;;;5093310;28;20130;-61
2021/07/27 08:26:12;;;;;;;47.35;34.63;;;22.10;99.90;;;;;;5093119;28;20398;-60
2021/07/27 08:28:38;;;;;;;47.83;32.70;;;22.10;99.90;;;;;;5093415;28;20070;-61
2021/07/27 08:31:04;;;;;;;43.50;32.97;;;22.20;99.90;;;;;;5092991;28;20036;-60
2021/07/27 08:33:30;;;;;;;45.60;32.20;;;22.20;99.90;;;;;;5092837;28;20066;-60
2021/07/27 08:35:57;;;;;;;46.28;33.78;;;22.20;99.90;;;;;;5093016;28;20473;-61
2021/07/27 08:38:24;;;;;;;46.05;33.40;;;22.10;99.90;;;;;;5093039;28;20048;-61
2021/07/27 08:40:50;;;;;;;43.55;33.05;;;22.20;99.90;;;;;;5092765;28;20441;-60
2021/07/27 08:43:17;;;;;;;46.63;33.90;;;22.30;99.90;;;;;;5092887;28;20048;-60
2021/07/27 08:45:44;;;;;;;47.45;33.90;;;22.50;99.90;;;;;;5092618;28;20055;-60
2021/07/27 08:48:10;;;;;;;44.40;34.10;;;22.70;99.90;;;;;;5092736;28;20076;-61
2021/07/27 08:50:35;;;;;;;44.05;32.45;;;22.70;99.90;;;;;;5092670;28;20469;-60
2021/07/27 08:53:01;;;;;;;46.97;32.72;;;22.80;99.90;;;;;;5092785;28;20406;-60
2021/07/27 08:55:27;;;;;;;37.40;30.17;;;22.90;99.90;;;;;;5092332;28;20040;-60
2021/07/27 08:58:00;;;;;;;41.92;32.65;;;22.90;99.90;;;;;;5092543;28;20044;-61
2021/07/27 09:00:28;;;;;;;38.58;30.80;;;22.70;99.90;;;;;;5092404;28;20072;-59
2021/07/27 09:02:54;;;;;;;43.22;34.03;;;22.80;99.90;;;;;;5092542;28;20040;-61
2021/07/27 09:05:20;;;;;;;43.63;31.25;;;22.80;99.90;;;;;;5092570;28;20135;-60
2021/07/27 09:07:46;;;;;;;39.97;31.50;;;23.00;99.90;;;;;;5092281;28;20489;-62
2021/07/27 09:10:12;;;;;;;42.58;31.45;;;23.00;99.90;;;;;;5092631;28;20089;-60
2021/07/27 09:12:38;;;;;;;39.33;31.98;;;23.10;99.90;;;;;;5092239;28;20040;-60
2021/07/27 09:15:05;;;;;;;36.08;29.85;;;23.10;99.90;;;;;;5092096;28;20036;-61
2021/07/27 09:17:32;;;;;;;37.42;29.25;;;23.00;99.90;;;;;;5092125;28;20044;-61
2021/07/27 09:19:58;;;;;;;33.05;28.85;;;23.00;99.90;;;;;;5092170;28;20078;-60
2021/07/27 09:22:24;;;;;;;34.92;29.42;;;23.00;99.90;;;;;;5092141;28;20063;-61
2021/07/27 09:24:49;;;;;;;39.90;32.35;;;22.80;99.90;;;;;;5092162;28;20127;-61
2021/07/27 09:27:15;;;;;;;38.00;31.27;;;22.60;99.90;;;;;;5092043;28;20040;-62
2021/07/27 09:29:46;;;;;;;37.08;30.67;;;22.60;99.90;;;;;;5092129;28;20036;-62
2021/07/27 09:32:21;;;;;;;38.58;31.80;;;22.40;99.90;;;;;;5092074;28;20043;-62
2021/07/27 09:34:47;;;;;;;37.80;29.52;;;22.40;99.90;;;;;;5091911;28;20047;-62
2021/07/27 09:37:14;;;;;;;35.80;29.65;;;22.40;99.90;;;;;;5106646;28;20051;-61
2021/07/27 09:39:40;;;;;;;31.48;27.73;;;22.60;99.90;;;;;;5092220;28;20056;-61
2021/07/27 09:42:10;;;;;;;33.05;27.38;;;22.50;99.90;;;;;;5092078;28;20036;-61
2021/07/27 09:44:39;;;;;;;33.13;27.40;;;22.80;99.90;;;;;;5092170;28;20044;-62
2021/07/27 09:47:05;;;;;;;34.50;27.42;;;23.00;99.90;;;;;;5091747;28;20384;-61
2021/07/27 09:49:31;;;;;;;31.67;26.70;;;22.90;99.90;;;;;;5092057;28;20051;-61
2021/07/27 09:51:57;;;;;;;29.50;24.60;;;22.90;99.90;;;;;;5091766;28;20085;-61
2021/07/27 09:54:24;;;;;;;26.30;23.45;;;23.00;99.90;;;;;;5091770;28;20051;-61
2021/07/27 09:56:54;;;;;;;24.70;22.00;;;23.10;99.90;;;;;;5091949;28;20393;-62
2021/07/27 09:59:22;;;;;;;28.75;24.40;;;23.30;99.90;;;;;;5092022;28;20047;-61
2021/07/27 10:01:55;;;;;;;29.83;24.92;;;23.60;99.90;;;;;;5091906;28;20485;-61
2021/07/27 10:04:31;;;;;;;28.15;25.05;;;23.60;99.90;;;;;;5091935;28;20131;-61
2021/07/27 10:06:58;;;;;;;29.15;24.85;;;23.90;99.90;;;;;;5091786;28;20048;-61
2021/07/27 10:09:30;;;;;;;32.67;25.98;;;24.10;99.90;;;;;;5094386;28;20406;-61
2021/07/27 10:12:05;;;;;;;31.52;26.52;;;24.10;99.90;;;;;;5100054;28;20047;-61
2021/07/27 10:14:40;;;;;;;27.10;23.85;;;24.20;99.90;;;;;;5104507;28;20044;-61
2021/07/27 10:17:06;;;;;;;30.42;25.02;;;24.50;99.90;;;;;;5112167;28;20063;-61
2021/07/27 10:19:45;;;;;;;30.17;25.10;;;24.50;99.90;;;;;;5108865;28;20036;-60
2021/07/27 10:22:12;;;;;;;31.35;25.67;;;24.40;99.90;;;;;;5111753;28;20039;-60
2021/07/27 10:24:41;;;;;;;32.72;24.67;;;24.20;99.90;;;;;;5111178;28;20044;-61
2021/07/27 10:27:19;;;;;;;30.38;27.13;;;24.40;99.90;;;;;;5112650;28;20070;-61
2021/07/27 10:29:45;;;;;;;30.98;25.95;;;24.40;99.90;;;;;;5116081;28;20050;-62
2021/07/27 10:32:19;;;;;;;29.15;25.65;;;24.40;99.90;;;;;;5115837;28;20051;-61
2021/07/27 10:34:45;;;;;;;26.48;23.15;;;24.20;99.90;;;;;;5115811;28;20050;-61
2021/07/27 10:37:16;;;;;;;26.42;23.63;;;24.20;99.90;;;;;;5116013;28;20050;-61
2021/07/27 10:39:58;;;;;;;31.08;24.33;;;24.50;99.90;;;;;;5115934;28;20059;-60
2021/07/27 10:42:24;;;;;;;30.50;25.10;;;24.90;99.90;;;;;;5115717;28;20089;-60
2021/07/27 10:44:52;;;;;;;31.17;26.10;;;24.80;99.90;;;;;;5102796;28;20043;-60
2021/07/27 10:47:22;;;;;;;31.00;25.92;;;25.10;99.90;;;;;;5114432;28;20497;-61
2021/07/27 10:50:02;;;;;;;28.95;25.92;;;25.10;99.90;;;;;;5114792;28;20489;-61
2021/07/27 10:52:30;;;;;;;28.50;25.48;;;25.10;99.90;;;;;;5115616;28;20044;-61
2021/07/27 10:54:58;;;;;;;28.55;24.73;;;24.90;99.90;;;;;;5115133;28;20040;-61
2021/07/27 10:57:30;;;;;;;26.10;23.40;;;24.80;99.90;;;;;;5115558;28;20044;-61
2021/07/27 10:59:56;;;;;;;25.42;22.27;;;24.80;99.90;;;;;;5115386;28;20031;-62
2021/07/27 11:02:24;;;;;;;27.90;23.17;;;24.60;99.90;;;;;;5115522;28;20092;-62
2021/07/27 11:04:49;;;;;;;26.23;23.48;;;24.70;99.90;;;;;;5115199;28;20578;-61
2021/07/27 11:07:17;;;;;;;27.00;22.27;;;24.70;99.90;;;;;;5115238;28;20039;-60
2021/07/27 11:09:52;;;;;;;25.37;20.50;;;24.80;99.90;;;;;;5114853;28;20135;-61
2021/07/27 11:12:29;;;;;;;21.15;17.30;;;24.70;99.90;;;;;;5095870;28;20031;-62
2021/07/27 11:15:09;;;;;;;19.65;15.20;;;24.70;99.90;;;;;;5114866;28;20530;-62
2021/07/27 11:17:43;;;;;;;25.27;17.42;;;24.70;99.90;;;;;;5109628;28;20458;-62
2021/07/27 11:20:09;;;;;;;17.00;15.27;;;24.70;99.90;;;;;;5112087;28;20070;-61
2021/07/27 11:22:35;;;;;;;17.75;15.88;;;24.70;99.90;;;;;;5108653;28;20119;-61
2021/07/27 11:25:02;;;;;;;19.58;12.80;;;24.80;99.90;;;;;;5111406;28;20043;-61
2021/07/27 11:27:29;;;;;;;15.65;12.73;;;25.10;99.90;;;;;;5108682;28;20036;-62
2021/07/27 11:30:00;;;;;;;14.98;13.43;;;25.10;99.90;;;;;;5110539;28;20109;-62
2021/07/27 11:32:47;;;;;;;15.90;14.23;;;25.20;99.90;;;;;;5111414;28;20048;-61
2021/07/27 11:35:14;;;;;;;17.17;15.38;;;25.10;99.90;;;;;;5113230;28;20044;-61
2021/07/27 11:37:42;;;;;;;17.63;14.20;;;25.10;99.90;;;;;;5109175;28;20044;-61
2021/07/27 11:40:24;;;;;;;14.75;13.10;;;25.30;99.90;;;;;;5111221;28;20071;-61
2021/07/27 11:43:05;;;;;;;15.65;12.85;;;25.20;99.90;;;;;;5110985;28;20050;-61
2021/07/27 11:45:32;;;;;;;17.17;12.55;;;25.40;99.90;;;;;;5107711;28;20111;-62
2021/07/27 11:47:58;;;;;;;14.73;12.77;;;25.50;99.90;;;;;;5110198;28;20131;-61
2021/07/27 11:50:41;;;;;;;16.25;13.50;;;25.70;99.90;;;;;;5108279;28;20118;-61
2021/07/27 11:53:08;;;;;;;16.25;12.18;;;25.80;99.90;;;;;;5107360;28;20047;-61
2021/07/27 11:55:39;;;;;;;14.85;12.57;;;25.80;99.90;;;;;;5105204;28;20044;-62
2021/07/27 11:58:07;;;;;;;16.98;12.98;;;25.70;99.90;;;;;;5107148;28;20039;-61
2021/07/27 12:00:35;;;;;;;14.38;12.55;;;25.50;99.90;;;;;;5107455;28;20035;-63
2021/07/27 12:03:03;;;;;;;;;;;25.50;99.90;;;;;;5110229;28;20040;-61
2021/07/27 12:05:33;;;;;;;15.18;13.13;;;25.50;99.90;;;;;;5107953;28;19916;-61
2021/07/27 12:08:01;;;;;;;13.65;12.23;;;25.40;99.90;;;;;;5112073;28;20393;-62
2021/07/27 12:10:26;;;;;;;15.52;13.25;;;25.50;99.90;;;;;;5114231;28;20044;-61
2021/07/27 12:12:52;;;;;;;20.27;13.82;;;25.50;99.90;;;;;;5114095;28;20043;-62
2021/07/27 12:15:19;;;;;;;15.93;12.60;;;25.30;99.90;;;;;;5113992;28;20126;-61
2021/07/27 12:17:45;;;;;;;15.88;13.98;;;25.40;99.90;;;;;;5108295;28;20393;-62
2021/07/27 12:20:13;;;;;;;14.65;12.82;;;25.30;99.90;;;;;;5113856;28;20040;-62
2021/07/27 12:22:40;;;;;;;15.13;12.43;;;25.20;99.90;;;;;;5113800;28;20089;-62
2021/07/27 12:25:06;;;;;;;15.30;13.30;;;25.20;99.90;;;;;;5106646;28;20093;-61
2021/07/27 12:27:32;;;;;;;16.45;12.48;;;25.20;99.90;;;;;;5110318;28;20043;-56
2021/07/27 12:29:58;;;;;;;19.92;13.88;;;25.20;99.90;;;;;;5104780;28;20464;-55
2021/07/27 12:32:24;;;;;;;15.75;12.20;;;25.00;99.90;;;;;;5106832;27;20092;-56
2021/07/27 12:34:51;;;;;;;20.65;13.50;;;25.00;99.90;;;;;;5100272;28;20079;-56
2021/07/27 12:37:18;;;;;;;17.55;13.50;;;25.00;99.90;;;;;;5105710;28;20545;-57
2021/07/27 12:39:45;;;;;;;15.23;13.05;;;25.10;99.90;;;;;;5113217;28;20393;-56
2021/07/27 12:42:12;;;;;;;19.63;13.70;;;25.10;99.90;;;;;;5113396;28;20043;-56
2021/07/27 12:44:37;;;;;;;16.00;13.50;;;25.10;99.90;;;;;;5112882;28;20071;-56
2021/07/27 12:47:04;;;;;;;14.63;13.13;;;25.00;99.90;;;;;;5102464;28;20052;-56
2021/07/27 12:49:29;;;;;;;16.60;14.68;;;25.10;99.90;;;;;;5112864;28;20067;-55